Time;durP1;ratioP1;P1;durP2;ratioP2;P2;SDS_P1;SDS_P2;PMS_P1;PMS_P2;Temp;Humidity;BMP_temperature;BMP_pressure;BME280_temperature;BME280_humidity;BME280_pressure;Samples;Min_cycle;Max_cycle;Signal;HPM_P1;HPM_P2
2021/05/02 00:00:13;;;;;;;;;;;;;;;20.69;46.44;100653.00;2085440;28;4015;-72
2021/05/02 00:01:13;;;;;;;;;;;;;;;20.69;46.60;100647.31;2085916;28;3963;-72
2021/05/02 00:02:14;;;;;;;;;;;;;;;20.69;46.58;100646.50;2085137;28;3997;-71
2021/05/02 00:03:15;;;;;;;;;;;;;;;20.69;46.56;100650.16;2084995;28;3853;-71
2021/05/02 00:04:17;;;;;;;;;;;;;;;20.70;46.61;100653.81;2084807;28;4079;-70
2021/05/02 00:05:18;;;;;;;;;;;;;;;20.69;46.58;100650.16;2085726;28;3921;-71
2021/05/02 00:06:19;;;;;;;;;;;;;;;20.71;46.65;100652.66;2084789;28;5192;-71
2021/05/02 00:07:20;;;;;;;;;;;;;;;20.70;46.50;100650.97;2084092;28;4150;-71
2021/05/02 00:08:20;;;;;;;;;;;;;;;20.71;46.52;100651.81;2085660;28;3987;-71
2021/05/02 00:09:21;;;;;;;;;;;;;;;20.69;46.71;100650.16;2084214;28;3833;-72
2021/05/02 00:10:22;;;;;;;;;;;;;;;20.70;46.64;100650.97;2085390;28;4082;-72
2021/05/02 00:11:22;;;;;;;;;;;;;;;20.70;46.46;100642.44;2085417;28;3898;-73
2021/05/02 00:12:23;;;;;;;;;;;;;;;20.70;46.67;100648.13;2085134;28;3843;-72
2021/05/02 00:13:24;;;;;;;;;;;;;;;20.70;46.63;100645.28;2084225;28;3849;-72
2021/05/02 00:14:25;;;;;;;;;;;;;;;20.70;46.54;100645.28;2084755;28;3854;-72
2021/05/02 00:15:25;;;;;;;;;;;;;;;20.69;46.58;100633.09;2085731;28;4013;-72
2021/05/02 00:16:26;;;;;;;;;;;;;;;20.70;46.69;100633.91;2084169;28;3862;-71
2021/05/02 00:17:27;;;;;;;;;;;;;;;20.70;46.58;100639.59;2085352;28;3816;-72
2021/05/02 00:18:28;;;;;;;;;;;;;;;20.70;46.47;100639.59;2085620;28;3836;-71
2021/05/02 00:19:28;;;;;;;;;;;;;;;20.70;46.61;100639.59;2084462;28;4017;-71
2021/05/02 00:20:29;;;;;;;;;;;;;;;20.70;46.52;100639.59;2084316;28;4046;-69
2021/05/02 00:21:30;;;;;;;;;;;;;;;20.71;46.53;100646.97;2084531;28;4081;-70
2021/05/02 00:22:31;;;;;;;;;;;;;;;20.71;46.63;100646.16;2085836;28;3852;-70
2021/05/02 00:23:31;;;;;;;;;;;;;;;20.71;46.66;100637.63;2085358;28;4120;-71
2021/05/02 00:24:32;;;;;;;;;;;;;;;20.71;46.71;100631.94;2084447;28;4002;-71
2021/05/02 00:25:33;;;;;;;;;;;;;;;20.70;46.62;100631.06;2085576;28;5415;-71
2021/05/02 00:26:34;;;;;;;;;;;;;;;20.71;46.73;100635.59;2085533;28;3845;-71
2021/05/02 00:27:34;;;;;;;;;;;;;;;20.70;46.60;100633.91;2084812;28;3994;-71
2021/05/02 00:28:35;;;;;;;;;;;;;;;20.71;46.55;100632.75;2085176;28;3995;-71
2021/05/02 00:29:36;;;;;;;;;;;;;;;20.71;46.52;100632.75;2085987;28;4929;-70
2021/05/02 00:30:37;;;;;;;;;;;;;;;20.70;46.68;100628.22;2085790;28;3843;-71
2021/05/02 00:31:37;;;;;;;;;;;;;;;20.71;46.64;100638.44;2085456;28;3988;-71
2021/05/02 00:32:38;;;;;;;;;;;;;;;20.71;46.74;100627.06;2084085;28;4144;-72
2021/05/02 00:33:39;;;;;;;;;;;;;;;20.71;46.76;100635.59;2085587;28;4002;-72
2021/05/02 00:34:40;;;;;;;;;;;;;;;20.72;46.91;100630.72;2084789;28;4014;-72
2021/05/02 00:35:41;;;;;;;;;;;;;;;20.71;46.70;100629.91;2085419;28;3789;-71
2021/05/02 00:36:41;;;;;;;;;;;;;;;20.71;46.69;100629.91;2084553;28;3920;-72
2021/05/02 00:37:42;;;;;;;;;;;;;;;20.72;46.74;100622.22;2085097;28;3870;-72
2021/05/02 00:38:43;;;;;;;;;;;;;;;20.71;46.75;100627.06;2085461;28;4164;-71
2021/05/02 00:39:44;;;;;;;;;;;;;;;20.72;46.81;100625.03;2084624;28;3992;-71
2021/05/02 00:40:44;;;;;;;;;;;;;;;20.72;46.67;100616.53;2085021;28;3932;-72
2021/05/02 00:41:45;;;;;;;;;;;;;;;20.72;46.65;100620.19;2076777;28;3961;-73
2021/05/02 00:42:46;;;;;;;;;;;;;;;20.72;46.87;100620.19;2074471;28;3762;-71
2021/05/02 00:43:47;;;;;;;;;;;;;;;20.72;46.81;100617.34;2085118;28;3913;-72
2021/05/02 00:44:48;;;;;;;;;;;;;;;20.72;46.75;100605.16;2084700;28;3762;-72
2021/05/02 00:45:49;;;;;;;;;;;;;;;20.73;46.73;100604.81;2083811;28;3862;-72
2021/05/02 00:46:49;;;;;;;;;;;;;;;20.73;46.77;100598.25;2084669;28;3979;-72
2021/05/02 00:47:50;;;;;;;;;;;;;;;20.73;46.87;100603.94;2084545;28;3909;-72
2021/05/02 00:48:51;;;;;;;;;;;;;;;20.73;47.11;100603.94;2084347;28;3828;-72
2021/05/02 00:49:52;;;;;;;;;;;;;;;20.73;46.96;100599.13;2083598;28;4184;-73
2021/05/02 00:50:58;;;;;;;;;;;;;;;20.74;46.98;100602.78;2085473;28;4289;-73
2021/05/02 00:51:59;;;;;;;;;;;;;;;20.73;46.94;100604.81;2084907;28;4221;-73
2021/05/02 00:53:00;;;;;;;;;;;;;;;20.73;46.94;100621.88;2085118;28;4105;-73
2021/05/02 00:54:00;;;;;;;;;;;;;;;20.73;47.07;100610.50;2084824;28;3982;-73
2021/05/02 00:55:01;;;;;;;;;;;;;;;20.73;46.94;100618.16;2084555;28;3859;-73
2021/05/02 00:56:02;;;;;;;;;;;;;;;20.73;47.07;100621.88;2084949;28;4000;-74
2021/05/02 00:57:03;;;;;;;;;;;;;;;20.75;47.05;100621.50;2085301;28;3856;-73
2021/05/02 00:58:04;;;;;;;;;;;;;;;20.74;47.12;100612.13;2084277;28;4003;-73
2021/05/02 00:59:04;;;;;;;;;;;;;;;20.74;47.16;100611.31;2084934;28;4001;-73
2021/05/02 01:00:05;;;;;;;;;;;;;;;20.74;47.06;100609.28;2083905;28;3996;-73
2021/05/02 01:01:06;;;;;;;;;;;;;;;20.74;47.05;100605.63;2085260;28;3841;-73
2021/05/02 01:02:07;;;;;;;;;;;;;;;20.74;47.10;100603.59;2084570;28;3990;-72
2021/05/02 01:03:08;;;;;;;;;;;;;;;20.73;47.11;100610.50;2085131;28;3836;-74
2021/05/02 01:04:08;;;;;;;;;;;;;;;20.73;47.13;100610.50;2085470;28;3815;-73
2021/05/02 01:05:09;;;;;;;;;;;;;;;20.73;47.20;100612.47;2084128;28;4091;-73
2021/05/02 01:06:10;;;;;;;;;;;;;;;20.73;47.18;100612.47;2084687;28;4042;-73
2021/05/02 01:07:10;;;;;;;;;;;;;;;20.73;47.22;100612.47;2085002;28;4136;-73
2021/05/02 01:08:12;;;;;;;;;;;;;;;20.73;47.20;100621.88;2085189;28;4915;-73
2021/05/02 01:09:13;;;;;;;;;;;;;;;20.73;47.11;100612.47;2085336;28;4262;-73
2021/05/02 01:10:14;;;;;;;;;;;;;;;20.73;47.26;100609.63;2084464;28;3831;-73
2021/05/02 01:11:14;;;;;;;;;;;;;;;20.73;47.24;100606.78;2084125;28;5260;-73
2021/05/02 01:12:15;;;;;;;;;;;;;;;20.73;47.18;100604.81;2085144;28;4008;-72
2021/05/02 01:13:16;;;;;;;;;;;;;;;20.74;47.24;100605.63;2085271;28;3998;-72
2021/05/02 01:14:17;;;;;;;;;;;;;;;20.73;47.33;100606.78;2085009;28;3808;-73
2021/05/02 01:15:25;;;;;;;;;;;;;;;20.73;47.25;100613.34;2083703;28;3991;-73
2021/05/02 01:16:26;;;;;;;;;;;;;;;20.73;47.36;100612.47;2085135;28;4042;-72
2021/05/02 01:17:27;;;;;;;;;;;;;;;20.72;47.29;100611.66;2083597;28;4029;-72
2021/05/02 01:18:28;;;;;;;;;;;;;;;20.73;47.22;100610.50;2083326;28;4079;-72
2021/05/02 01:19:29;;;;;;;;;;;;;;;20.73;47.36;100609.63;2083919;28;3996;-72
2021/05/02 01:20:29;;;;;;;;;;;;;;;20.74;47.31;100614.16;2085119;28;5368;-73
2021/05/02 01:21:30;;;;;;;;;;;;;;;20.73;47.21;100603.94;2085136;28;3994;-72
2021/05/02 01:22:31;;;;;;;;;;;;;;;20.73;47.30;100603.94;2085277;28;3840;-72
2021/05/02 01:23:34;;;;;;;;;;;;;;;20.73;47.16;100606.78;2085124;28;4059;-72
2021/05/02 01:24:35;;;;;;;;;;;;;;;20.74;47.43;100606.44;2084327;28;3828;-72
2021/05/02 01:25:36;;;;;;;;;;;;;;;20.73;47.45;100599.13;2084399;28;4032;-72
2021/05/02 01:26:37;;;;;;;;;;;;;;;20.73;47.29;100601.97;2084049;28;3846;-72
2021/05/02 01:27:37;;;;;;;;;;;;;;;20.74;47.48;100597.09;2083130;28;3851;-72
2021/05/02 01:28:38;;;;;;;;;;;;;;;20.74;47.35;100597.09;2080986;28;4078;-73
2021/05/02 01:29:39;;;;;;;;;;;;;;;20.73;47.44;100604.81;2082989;28;4063;-72
2021/05/02 01:30:41;;;;;;;;;;;;;;;20.74;47.30;100602.78;2082528;28;3823;-72
2021/05/02 01:31:42;;;;;;;;;;;;;;;20.74;47.34;100602.78;2083135;28;3837;-73
2021/05/02 01:32:43;;;;;;;;;;;;;;;20.73;47.33;100604.81;2085128;28;4012;-72
2021/05/02 01:33:45;;;;;;;;;;;;;;;20.73;47.50;100610.50;2084664;28;3893;-72
2021/05/02 01:34:46;;;;;;;;;;;;;;;20.74;47.50;100605.63;2084949;28;4112;-72
2021/05/02 01:35:47;;;;;;;;;;;;;;;20.74;47.56;100611.31;2084353;28;3961;-73
2021/05/02 01:36:48;;;;;;;;;;;;;;;20.74;47.37;100612.13;2084282;28;3816;-72
2021/05/02 01:37:49;;;;;;;;;;;;;;;20.74;47.42;100619.84;2084473;28;3797;-73
2021/05/02 01:38:49;;;;;;;;;;;;;;;20.74;47.50;100611.31;2075142;28;3952;-72
2021/05/02 01:39:50;;;;;;;;;;;;;;;20.74;47.41;100614.97;2076066;28;3836;-72
2021/05/02 01:40:53;;;;;;;;;;;;;;;20.74;47.51;100623.50;2084414;28;5273;-71
2021/05/02 01:41:54;;;;;;;;;;;;;;;20.74;47.42;100612.13;2084881;28;3879;-72
2021/05/02 01:42:55;;;;;;;;;;;;;;;20.74;47.55;100612.13;2084604;28;4063;-72
2021/05/02 01:43:56;;;;;;;;;;;;;;;20.74;47.63;100623.50;2084105;28;3897;-72
2021/05/02 01:44:56;;;;;;;;;;;;;;;20.75;47.49;100615.81;2085064;28;3988;-73
2021/05/02 01:45:57;;;;;;;;;;;;;;;20.73;47.53;100613.34;2084501;28;3988;-73
2021/05/02 01:46:58;;;;;;;;;;;;;;;20.73;47.43;100609.63;2085009;28;4079;-73
2021/05/02 01:47:59;;;;;;;;;;;;;;;20.74;47.63;100614.16;2084458;28;4000;-73
2021/05/02 01:48:59;;;;;;;;;;;;;;;20.74;47.55;100612.13;2084209;28;4115;-73
2021/05/02 01:50:01;;;;;;;;;;;;;;;20.74;47.37;100614.97;2083824;28;3981;-74
2021/05/02 01:51:02;;;;;;;;;;;;;;;20.74;47.62;100619.84;2084816;28;4085;-73
2021/05/02 01:52:03;;;;;;;;;;;;;;;20.73;47.45;100619.03;2085094;28;5329;-73
2021/05/02 01:53:04;;;;;;;;;;;;;;;20.73;47.63;100616.19;2084513;28;3856;-73
2021/05/02 01:54:05;;;;;;;;;;;;;;;20.73;47.67;100610.50;2083601;28;4004;-73
2021/05/02 01:55:05;;;;;;;;;;;;;;;20.73;47.54;100607.66;2084563;28;3998;-73
2021/05/02 01:56:06;;;;;;;;;;;;;;;20.74;47.62;100608.47;2084223;28;3863;-73
2021/05/02 01:57:07;;;;;;;;;;;;;;;20.74;47.63;100617.00;2084796;28;4008;-73
2021/05/02 01:58:09;;;;;;;;;;;;;;;20.73;47.62;100610.50;2084698;28;3897;-73
2021/05/02 01:59:10;;;;;;;;;;;;;;;20.74;47.56;100608.47;2084099;28;4101;-73
2021/05/02 02:00:11;;;;;;;;;;;;;;;20.72;47.67;100605.97;2084881;28;5295;-73
2021/05/02 02:01:11;;;;;;;;;;;;;;;20.74;47.63;100605.63;2084650;28;4038;-72
2021/05/02 02:02:12;;;;;;;;;;;;;;;20.73;47.60;100603.94;2084814;28;4219;-73
2021/05/02 02:03:13;;;;;;;;;;;;;;;20.73;47.64;100598.25;2083979;28;4396;-73
2021/05/02 02:04:14;;;;;;;;;;;;;;;20.73;47.62;100595.44;2084112;28;3982;-73
2021/05/02 02:05:14;;;;;;;;;;;;;;;20.74;47.69;100599.94;2084505;28;4004;-73
2021/05/02 02:06:15;;;;;;;;;;;;;;;20.73;47.71;100598.25;2083698;28;3997;-73
2021/05/02 02:07:16;;;;;;;;;;;;;;;20.73;47.55;100599.13;2075488;28;4034;-73
2021/05/02 02:08:17;;;;;;;;;;;;;;;20.73;47.66;100593.44;2075734;28;3915;-73
2021/05/02 02:09:18;;;;;;;;;;;;;;;20.73;47.70;100593.44;2083963;28;3888;-73
2021/05/02 02:10:18;;;;;;;;;;;;;;;20.74;47.72;100591.41;2084640;28;3941;-73
2021/05/02 02:11:19;;;;;;;;;;;;;;;20.73;47.77;100593.44;2084687;28;3966;-73
2021/05/02 02:12:20;;;;;;;;;;;;;;;20.73;47.69;100593.44;2084522;28;4012;-72
2021/05/02 02:13:21;;;;;;;;;;;;;;;20.73;47.68;100592.56;2084490;28;4005;-72
2021/05/02 02:14:22;;;;;;;;;;;;;;;20.71;47.56;100583.59;2083911;28;4038;-71
2021/05/02 02:15:22;;;;;;;;;;;;;;;20.72;47.69;100588.91;2084356;28;3824;-73
2021/05/02 02:16:23;;;;;;;;;;;;;;;20.73;47.71;100593.44;2083795;28;3963;-72
2021/05/02 02:17:24;;;;;;;;;;;;;;;20.73;47.54;100593.44;2084543;28;3739;-72
2021/05/02 02:18:25;;;;;;;;;;;;;;;20.73;47.60;100586.91;2083229;28;4068;-73
2021/05/02 02:19:25;;;;;;;;;;;;;;;20.73;47.54;100581.22;2084967;28;5073;-72
2021/05/02 02:20:26;;;;;;;;;;;;;;;20.72;47.51;100580.38;2084018;28;4025;-73
2021/05/02 02:21:27;;;;;;;;;;;;;;;20.72;47.66;100586.06;2083465;28;3851;-73
2021/05/02 02:22:28;;;;;;;;;;;;;;;20.72;47.49;100576.72;2084458;28;4025;-73
2021/05/02 02:23:28;;;;;;;;;;;;;;;20.72;47.68;100585.25;2085129;28;3997;-73
2021/05/02 02:24:29;;;;;;;;;;;;;;;20.73;47.71;100595.44;2084580;28;5074;-72
2021/05/02 02:25:30;;;;;;;;;;;;;;;20.72;47.70;100590.94;2083877;28;4058;-72
2021/05/02 02:26:30;;;;;;;;;;;;;;;20.73;47.84;100590.59;2084130;28;3816;-72
2021/05/02 02:27:31;;;;;;;;;;;;;;;20.74;47.62;100591.41;2084607;28;4075;-72
2021/05/02 02:28:32;;;;;;;;;;;;;;;20.73;47.60;100592.56;2084588;28;3809;-72
2021/05/02 02:29:33;;;;;;;;;;;;;;;20.72;47.89;100586.06;2075373;28;4152;-72
2021/05/02 02:30:33;;;;;;;;;;;;;;;20.73;47.66;100584.06;2076241;28;3993;-72
2021/05/02 02:31:34;;;;;;;;;;;;;;;20.72;47.76;100586.06;2084292;28;3965;-74
2021/05/02 02:32:35;;;;;;;;;;;;;;;20.72;47.62;100588.91;2083857;28;3963;-74
2021/05/02 02:33:36;;;;;;;;;;;;;;;20.73;47.76;100586.91;2084277;28;3987;-75
2021/05/02 02:34:36;;;;;;;;;;;;;;;20.73;47.72;100582.06;2084691;28;4003;-73
2021/05/02 02:35:37;;;;;;;;;;;;;;;20.74;47.69;100580.03;2084535;28;3932;-73
2021/05/02 02:36:38;;;;;;;;;;;;;;;20.73;47.84;100582.06;2083796;28;5449;-73
2021/05/02 02:37:38;;;;;;;;;;;;;;;20.74;47.81;100583.72;2084905;28;4879;-74
2021/05/02 02:38:39;;;;;;;;;;;;;;;20.74;47.69;100583.72;2084272;28;3933;-73
2021/05/02 02:39:40;;;;;;;;;;;;;;;20.74;47.66;100580.03;2084861;28;4027;-74
2021/05/02 02:40:41;;;;;;;;;;;;;;;20.74;47.67;100580.88;2085346;28;3944;-73
2021/05/02 02:41:41;;;;;;;;;;;;;;;20.74;47.67;100578.03;2086446;28;3917;-73
2021/05/02 02:42:42;;;;;;;;;;;;;;;20.74;47.92;100582.88;2085641;28;3977;-74
2021/05/02 02:43:43;;;;;;;;;;;;;;;20.75;47.75;100587.38;2086453;28;4063;-72
2021/05/02 02:44:44;;;;;;;;;;;;;;;20.74;47.67;100582.88;2086326;28;3935;-74
2021/05/02 02:45:44;;;;;;;;;;;;;;;20.75;47.85;100581.69;2085484;28;4088;-74
2021/05/02 02:46:45;;;;;;;;;;;;;;;20.75;47.93;100578.84;2086261;28;4019;-74
2021/05/02 02:47:46;;;;;;;;;;;;;;;20.75;47.84;100573.97;2085570;28;4050;-74
2021/05/02 02:48:47;;;;;;;;;;;;;;;20.75;47.69;100576.81;2085434;28;4206;-73
2021/05/02 02:49:48;;;;;;;;;;;;;;;20.76;47.91;100574.81;2085912;28;3761;-72
2021/05/02 02:50:49;;;;;;;;;;;;;;;20.75;47.92;100571.13;2085694;28;3759;-73
2021/05/02 02:51:50;;;;;;;;;;;;;;;20.76;47.79;100569.97;2086146;28;4030;-72
2021/05/02 02:52:51;;;;;;;;;;;;;;;20.76;47.93;100584.19;2086037;28;3875;-72
2021/05/02 02:53:51;;;;;;;;;;;;;;;20.76;48.12;100577.66;2085303;28;5215;-73
2021/05/02 02:54:52;;;;;;;;;;;;;;;20.77;47.97;100576.47;2085540;28;4020;-73
2021/05/02 02:55:53;;;;;;;;;;;;;;;20.77;48.08;100576.47;2086210;28;4106;-73
2021/05/02 02:56:54;;;;;;;;;;;;;;;20.77;47.98;100576.47;2085128;28;3926;-73
2021/05/02 02:57:54;;;;;;;;;;;;;;;20.76;48.01;100578.50;2085538;28;4385;-71
2021/05/02 02:58:56;;;;;;;;;;;;;;;20.77;48.07;100580.16;2085687;28;3990;-71
2021/05/02 02:59:57;;;;;;;;;;;;;;;20.77;47.99;100583.00;2086010;28;4337;-71
2021/05/02 03:00:57;;;;;;;;;;;;;;;20.76;48.03;100581.34;2086130;28;4212;-71
2021/05/02 03:01:58;;;;;;;;;;;;;;;20.76;47.98;100586.19;2076140;28;3882;-71
2021/05/02 03:02:59;;;;;;;;;;;;;;;20.77;48.18;100583.00;2075599;28;3933;-71
2021/05/02 03:04:00;;;;;;;;;;;;;;;20.77;47.95;100583.00;2086033;28;4049;-71
2021/05/02 03:05:01;;;;;;;;;;;;;;;20.76;47.98;100587.03;2086790;28;4057;-71
2021/05/02 03:06:02;;;;;;;;;;;;;;;20.76;48.06;100575.66;2085320;28;4054;-71
2021/05/02 03:07:03;;;;;;;;;;;;;;;20.77;48.10;100585.00;2084767;28;3966;-72
2021/05/02 03:08:04;;;;;;;;;;;;;;;20.76;47.92;100589.88;2085769;28;4150;-72
2021/05/02 03:09:04;;;;;;;;;;;;;;;20.76;48.13;100586.19;2085754;28;4055;-72
2021/05/02 03:10:05;;;;;;;;;;;;;;;20.76;48.17;100587.03;2085727;28;6443;-71
2021/05/02 03:11:06;;;;;;;;;;;;;;;20.77;48.04;100590.69;2086014;28;4065;-71
2021/05/02 03:12:10;;;;;;;;;;;;;;;20.77;48.08;100585.00;2085105;28;4014;-72
2021/05/02 03:13:11;;;;;;;;;;;;;;;20.77;48.05;100591.53;2085767;28;3813;-72
2021/05/02 03:14:12;;;;;;;;;;;;;;;20.77;48.12;100588.69;2085144;28;4018;-72
2021/05/02 03:15:13;;;;;;;;;;;;;;;20.77;47.91;100591.53;2086040;28;3926;-72
2021/05/02 03:16:13;;;;;;;;;;;;;;;20.77;48.10;100585.00;2085906;28;4142;-71
2021/05/02 03:17:14;;;;;;;;;;;;;;;20.76;48.02;100589.88;2084869;28;3952;-72
2021/05/02 03:18:16;;;;;;;;;;;;;;;20.76;48.21;100589.88;2084867;28;4023;-70
2021/05/02 03:19:17;;;;;;;;;;;;;;;20.77;48.09;100594.34;2076654;28;3876;-73
2021/05/02 03:20:18;;;;;;;;;;;;;;;20.78;48.16;100583.81;2075923;28;3842;-71
2021/05/02 03:21:18;;;;;;;;;;;;;;;20.77;48.14;100588.69;2085795;28;4000;-73
2021/05/02 03:22:19;;;;;;;;;;;;;;;20.77;48.11;100585.00;2086255;28;4034;-72
2021/05/02 03:23:20;;;;;;;;;;;;;;;20.78;47.93;100592.34;2085957;28;4028;-72
2021/05/02 03:24:21;;;;;;;;;;;;;;;20.78;47.98;100589.50;2085298;28;5059;-72
2021/05/02 03:25:21;;;;;;;;;;;;;;;20.76;48.14;100584.19;2085994;28;3803;-72
2021/05/02 03:26:22;;;;;;;;;;;;;;;20.77;48.04;100588.69;2085673;28;3921;-72
2021/05/02 03:27:23;;;;;;;;;;;;;;;20.77;48.18;100585.84;2085728;28;5122;-72
2021/05/02 03:28:23;;;;;;;;;;;;;;;20.77;48.09;100583.00;2084688;28;3841;-72
2021/05/02 03:29:24;;;;;;;;;;;;;;;20.77;48.14;100588.69;2084800;28;4028;-72
2021/05/02 03:30:25;;;;;;;;;;;;;;;20.77;48.02;100588.69;2085880;28;3998;-72
2021/05/02 03:31:26;;;;;;;;;;;;;;;20.78;48.13;100592.34;2085749;28;3971;-72
2021/05/02 03:32:26;;;;;;;;;;;;;;;20.77;48.13;100587.84;2085962;28;3834;-72
2021/05/02 03:33:27;;;;;;;;;;;;;;;20.78;48.15;100589.50;2085663;28;3839;-72
2021/05/02 03:34:28;;;;;;;;;;;;;;;20.78;48.16;100592.34;2085005;28;3835;-72
2021/05/02 03:35:29;;;;;;;;;;;;;;;20.78;48.06;100584.63;2085852;28;4004;-72
2021/05/02 03:36:30;;;;;;;;;;;;;;;20.78;48.16;100590.31;2085796;28;3986;-72
2021/05/02 03:37:31;;;;;;;;;;;;;;;20.78;48.08;100590.31;2085508;28;4046;-72
2021/05/02 03:38:32;;;;;;;;;;;;;;;20.77;48.24;100583.00;2085556;28;4150;-72
2021/05/02 03:39:33;;;;;;;;;;;;;;;20.78;48.12;100590.31;2085396;28;3845;-72
2021/05/02 03:40:33;;;;;;;;;;;;;;;20.78;48.17;100590.31;2086110;28;3774;-72
2021/05/02 03:41:34;;;;;;;;;;;;;;;20.78;48.19;100584.63;2085584;28;3945;-72
2021/05/02 03:42:35;;;;;;;;;;;;;;;20.79;48.13;100596.88;2085953;28;5286;-72
2021/05/02 03:43:37;;;;;;;;;;;;;;;20.77;48.23;100588.69;2085487;28;4038;-74
2021/05/02 03:44:38;;;;;;;;;;;;;;;20.78;48.24;100593.16;2084826;28;3948;-72
2021/05/02 03:45:39;;;;;;;;;;;;;;;20.79;48.21;100592.00;2086000;28;3889;-72
2021/05/02 03:46:39;;;;;;;;;;;;;;;20.78;48.20;100596.00;2085472;28;3813;-71
2021/05/02 03:47:40;;;;;;;;;;;;;;;20.79;48.34;100586.31;2085237;28;4029;-71
2021/05/02 03:48:41;;;;;;;;;;;;;;;20.79;48.28;100591.19;2085665;28;4117;-70
2021/05/02 03:49:41;;;;;;;;;;;;;;;20.78;48.29;100586.66;2084312;28;4069;-71
2021/05/02 03:50:42;;;;;;;;;;;;;;;20.79;48.29;100594.03;2085653;28;3941;-70
2021/05/02 03:51:43;;;;;;;;;;;;;;;20.79;48.29;100592.00;2084346;28;3958;-70
2021/05/02 03:52:44;;;;;;;;;;;;;;;20.79;48.26;100596.88;2085922;28;3954;-72
2021/05/02 03:53:45;;;;;;;;;;;;;;;20.78;48.23;100590.31;2085477;28;4011;-72
2021/05/02 03:54:46;;;;;;;;;;;;;;;20.79;48.35;100592.00;2085137;28;3988;-71
2021/05/02 03:55:46;;;;;;;;;;;;;;;20.79;48.28;100597.69;2085180;28;3797;-72
2021/05/02 03:56:47;;;;;;;;;;;;;;;20.79;48.37;100602.56;2086054;28;3939;-73
2021/05/02 03:57:48;;;;;;;;;;;;;;;20.79;48.40;100599.72;2085568;28;3972;-73
2021/05/02 03:58:49;;;;;;;;;;;;;;;20.79;48.22;100594.84;2085666;28;3790;-73
2021/05/02 03:59:49;;;;;;;;;;;;;;;20.79;48.28;100596.88;2078642;28;3807;-72
2021/05/02 04:00:50;;;;;;;;;;;;;;;20.79;48.34;100597.69;2080442;28;3729;-72
2021/05/02 04:01:51;;;;;;;;;;;;;;;20.79;48.44;100596.88;2085217;28;4039;-72
2021/05/02 04:02:52;;;;;;;;;;;;;;;20.80;48.23;100604.19;2085348;28;4601;-72
2021/05/02 04:03:53;;;;;;;;;;;;;;;20.80;48.28;100607.84;2085528;28;3957;-73
2021/05/02 04:04:54;;;;;;;;;;;;;;;20.79;48.44;100600.53;2084439;28;4047;-73
2021/05/02 04:05:54;;;;;;;;;;;;;;;20.79;48.45;100597.69;2085577;28;3854;-73
2021/05/02 04:06:58;;;;;;;;;;;;;;;20.79;48.24;100603.38;2085575;28;4036;-72
2021/05/02 04:07:58;;;;;;;;;;;;;;;20.80;48.42;100595.66;2085593;28;4093;-73
2021/05/02 04:08:59;;;;;;;;;;;;;;;20.80;48.21;100598.50;2084988;28;3919;-73
2021/05/02 04:10:00;;;;;;;;;;;;;;;20.80;48.31;100601.34;2084225;28;4166;-73
2021/05/02 04:11:01;;;;;;;;;;;;;;;20.79;48.26;100594.84;2085370;28;4136;-73
2021/05/02 04:12:01;;;;;;;;;;;;;;;20.80;48.40;100593.66;2085595;28;3856;-72
2021/05/02 04:13:02;;;;;;;;;;;;;;;20.79;48.30;100603.38;2086070;28;3979;-72
2021/05/02 04:14:03;;;;;;;;;;;;;;;20.79;48.58;100600.53;2085118;28;3826;-72
2021/05/02 04:15:04;;;;;;;;;;;;;;;20.79;48.19;100603.38;2085107;28;3922;-72
2021/05/02 04:16:04;;;;;;;;;;;;;;;20.80;48.28;100605.00;2085631;28;4172;-72
2021/05/02 04:17:05;;;;;;;;;;;;;;;20.79;48.43;100596.88;2085408;28;3976;-72
2021/05/02 04:18:07;;;;;;;;;;;;;;;20.80;48.31;100605.00;2085431;28;3982;-72
2021/05/02 04:19:08;;;;;;;;;;;;;;;20.79;48.40;100600.53;2085531;28;5272;-72
2021/05/02 04:20:08;;;;;;;;;;;;;;;20.80;48.42;100610.69;2085232;28;3994;-71
2021/05/02 04:21:09;;;;;;;;;;;;;;;20.80;48.46;100605.00;2084504;28;4033;-72
2021/05/02 04:22:10;;;;;;;;;;;;;;;20.80;48.31;100605.00;2084826;28;6207;-71
2021/05/02 04:23:11;;;;;;;;;;;;;;;20.80;48.31;100602.19;2085517;28;4158;-70
2021/05/02 04:24:11;;;;;;;;;;;;;;;20.79;48.19;100603.38;2085445;28;4068;-71
2021/05/02 04:25:12;;;;;;;;;;;;;;;20.81;48.35;100612.34;2084152;28;4012;-72
2021/05/02 04:26:13;;;;;;;;;;;;;;;20.81;48.45;100603.00;2085630;28;4150;-72
2021/05/02 04:27:14;;;;;;;;;;;;;;;20.80;48.41;100607.03;2085526;28;3990;-72
2021/05/02 04:28:15;;;;;;;;;;;;;;;20.81;48.32;100614.38;2085617;28;3802;-71
2021/05/02 04:29:16;;;;;;;;;;;;;;;20.80;48.33;100602.19;2084669;28;4080;-71
2021/05/02 04:30:16;;;;;;;;;;;;;;;20.80;48.29;100613.53;2085281;28;3847;-72
2021/05/02 04:31:17;;;;;;;;;;;;;;;20.80;48.37;100598.50;2085162;28;4002;-72
2021/05/02 04:32:18;;;;;;;;;;;;;;;20.80;48.39;100609.88;2084306;28;4015;-72
2021/05/02 04:33:19;;;;;;;;;;;;;;;20.80;48.39;100598.50;2084515;28;3838;-71
2021/05/02 04:34:20;;;;;;;;;;;;;;;20.80;48.40;100607.03;2085683;28;4193;-72
2021/05/02 04:35:20;;;;;;;;;;;;;;;20.81;48.39;100609.50;2084698;28;4031;-72
2021/05/02 04:36:21;;;;;;;;;;;;;;;20.81;48.46;100605.84;2085530;28;3986;-72
2021/05/02 04:37:22;;;;;;;;;;;;;;;20.82;48.38;100604.66;2084881;28;3858;-72
2021/05/02 04:38:22;;;;;;;;;;;;;;;20.81;48.51;100600.97;2085233;28;3833;-72
2021/05/02 04:39:23;;;;;;;;;;;;;;;20.82;48.38;100604.66;2085051;28;4022;-73
2021/05/02 04:40:24;;;;;;;;;;;;;;;20.81;48.36;100603.81;2084726;28;3840;-73
2021/05/02 04:41:25;;;;;;;;;;;;;;;20.81;48.47;100598.13;2085485;28;4036;-73
2021/05/02 04:42:25;;;;;;;;;;;;;;;20.82;48.30;100602.66;2085093;28;4001;-73
2021/05/02 04:43:26;;;;;;;;;;;;;;;20.81;48.42;100597.31;2084691;28;3879;-73
2021/05/02 04:44:27;;;;;;;;;;;;;;;20.82;48.37;100593.31;2085350;28;4006;-74
2021/05/02 04:45:28;;;;;;;;;;;;;;;20.81;48.52;100603.81;2085061;28;4081;-74
2021/05/02 04:46:28;;;;;;;;;;;;;;;20.81;48.50;100600.97;2085096;28;3825;-74
2021/05/02 04:47:29;;;;;;;;;;;;;;;20.81;48.33;100600.97;2085516;28;3791;-74
2021/05/02 04:48:30;;;;;;;;;;;;;;;20.81;48.44;100609.50;2084218;28;4009;-72
2021/05/02 04:49:31;;;;;;;;;;;;;;;20.81;48.37;100603.81;2084940;28;4040;-73
2021/05/02 04:50:32;;;;;;;;;;;;;;;20.81;48.48;100595.28;2084465;28;3995;-73
2021/05/02 04:51:35;;;;;;;;;;;;;;;20.81;48.47;100595.28;2084646;28;5215;-73
2021/05/02 04:52:36;;;;;;;;;;;;;;;20.81;48.33;100595.28;2085357;28;4044;-73
2021/05/02 04:53:37;;;;;;;;;;;;;;;20.81;48.32;100600.97;2084776;28;3879;-73
2021/05/02 04:54:37;;;;;;;;;;;;;;;20.81;48.26;100595.28;2085263;28;3997;-73
2021/05/02 04:55:38;;;;;;;;;;;;;;;20.81;48.29;100597.31;2084928;28;5015;-73
2021/05/02 04:56:39;;;;;;;;;;;;;;;20.81;48.41;100597.31;2085109;28;3941;-72
2021/05/02 04:57:39;;;;;;;;;;;;;;;20.81;48.51;100591.63;2085285;28;3825;-72
2021/05/02 04:58:40;;;;;;;;;;;;;;;20.81;48.39;100595.28;2084347;28;3941;-73
2021/05/02 04:59:41;;;;;;;;;;;;;;;20.81;48.36;100595.28;2085084;28;3794;-73
2021/05/02 05:00:42;;;;;;;;;;;;;;;20.82;48.47;100596.97;2083968;28;4056;-70
2021/05/02 05:01:42;;;;;;;;;;;;;;;20.83;48.38;100594.94;2085227;28;3781;-71
2021/05/02 05:02:43;;;;;;;;;;;;;;;20.84;48.38;100602.28;2085134;28;3911;-72
2021/05/02 05:03:44;;;;;;;;;;;;;;;20.83;48.67;100598.59;2083365;28;3989;-72
2021/05/02 05:04:45;;;;;;;;;;;;;;;20.83;48.52;100597.78;2085024;28;3938;-72
2021/05/02 05:05:46;;;;;;;;;;;;;;;20.83;48.38;100597.78;2085175;28;3955;-72
2021/05/02 05:06:46;;;;;;;;;;;;;;;20.83;48.45;100595.78;2085159;28;3999;-72
2021/05/02 05:07:47;;;;;;;;;;;;;;;20.83;48.55;100590.09;2085261;28;3846;-72
2021/05/02 05:08:48;;;;;;;;;;;;;;;20.84;48.51;100596.59;2083444;28;3936;-72
2021/05/02 05:09:49;;;;;;;;;;;;;;;20.84;48.58;100594.59;2085036;28;3992;-71
2021/05/02 05:10:49;;;;;;;;;;;;;;;20.85;48.72;100598.28;2083829;28;3782;-72
2021/05/02 05:11:50;;;;;;;;;;;;;;;20.84;48.56;100593.75;2085162;28;3896;-71
2021/05/02 05:12:51;;;;;;;;;;;;;;;20.84;48.74;100603.13;2084409;28;5172;-72
2021/05/02 05:13:52;;;;;;;;;;;;;;;20.84;48.72;100593.75;2084253;28;4056;-71
2021/05/02 05:14:53;;;;;;;;;;;;;;;20.83;48.73;100592.94;2084503;28;3838;-72
2021/05/02 05:15:53;;;;;;;;;;;;;;;20.84;48.70;100600.28;2084246;28;4007;-72
2021/05/02 05:16:54;;;;;;;;;;;;;;;20.85;48.69;100601.94;2084054;28;3977;-72